Terminal Aerodrome Forecast
Issued by NWS

Home | Current Version | Previous Version | Graphics & Text | Print | Product List | Glossary On
Versions: 1 2 3 4 5 6 7 8 9 10 11 12 13 14 15 16
000
FTUS43 KICT 222325
TAFHUT
TAF
KHUT 222325Z 2300/2324 01010KT P6SM BKN030 OVC045
     FM230100 01008KT P6SM OVC050
     FM230400 01004KT P6SM BKN050
     FM231000 35005KT P6SM FEW150
     FM231800 02007KT P6SM FEW050=

USA.gov is the U.S. government's official web portal to all federal, state and local government web resources and services.